Time;durP1;ratioP1;P1;durP2;ratioP2;P2;SDS_P1;SDS_P2;PMS_P1;PMS_P2;Temp;Humidity;BMP_temperature;BMP_pressure;BME280_temperature;BME280_humidity;BME280_pressure;Samples;Min_cycle;Max_cycle;Signal;HPM_P1;HPM_P2
2022/06/04 00:01:12;;;;;;;;;;;;;;;11.31;100.00;100129.31;1693305;85;20123;-66
2022/06/04 00:03:40;;;;;;;;;;;;;;;11.27;100.00;100125.55;1693182;85;20123;-66
2022/06/04 00:06:07;;;;;;;;;;;;;;;11.25;100.00;100123.10;1694373;82;20119;-67
2022/06/04 00:08:33;;;;;;;;;;;;;;;11.29;100.00;100123.30;1709053;83;22112;-66
2022/06/04 00:16:31;;;;;;;;;;;;;;;11.38;100.00;100114.03;1693302;84;20482;-67
2022/06/04 00:18:58;;;;;;;;;;;;;;;11.41;100.00;100119.48;1693174;85;20124;-67
2022/06/04 00:21:24;;;;;;;;;;;;;;;11.43;100.00;100115.30;1693323;85;21162;-67
2022/06/04 00:23:51;;;;;;;;;;;;;;;11.43;100.00;100118.61;1693083;85;20186;-67
2022/06/04 00:26:18;;;;;;;;;;;;;;;11.40;100.00;100113.17;1693299;85;20099;-67
2022/06/04 00:28:46;;;;;;;;;;;;;;;11.38;100.00;100112.66;1693081;84;20200;-67
2022/06/04 00:31:13;;;;;;;;;;;;;;;11.41;100.00;100109.86;1693217;85;20184;-67
2022/06/04 00:33:39;;;;;;;;;;;;;;;11.45;100.00;100108.13;1696683;82;21212;-68
2022/06/04 00:36:06;;;;;;;;;;;;;;;11.48;100.00;100104.76;1710684;82;20158;-67
2022/06/04 00:38:34;;;;;;;;;;;;;;;11.52;100.00;100103.02;1712088;82;20121;-67
2022/06/04 00:41:19;;;;;;;;;;;;;;;11.52;100.00;100098.90;1704014;82;20123;-67
2022/06/04 00:44:00;;;;;;;;;;;;;;;11.53;100.00;100095.03;1709231;82;20162;-67
2022/06/04 00:46:48;;;;;;;;;;;;;;;11.51;100.00;100098.64;1676716;82;21139;-67
2022/06/04 00:49:16;;;;;;;;;;;;;;;11.51;100.00;100101.39;1673301;85;20089;-65
2022/06/04 00:51:45;;;;;;;;;;;;;;;11.48;100.00;100096.52;1688098;85;20088;-65
2022/06/04 00:54:12;;;;;;;;;;;;;;;11.48;100.00;100104.76;1688083;85;20163;-65
2022/06/04 00:56:51;;;;;;;;;;;;;;;11.47;100.00;100102.57;1688015;85;20455;-65
2022/06/04 00:59:39;;;;;;;;;;;;;;;11.48;100.00;100102.83;1687962;85;21310;-65
2022/06/04 01:02:24;;;;;;;;;;;;;;;11.50;100.00;100099.77;1688043;85;20099;-65
2022/06/04 01:05:15;;;;;;;;;;;;;;;11.49;100.00;100104.45;1688170;85;20210;-65
2022/06/04 01:07:54;;;;;;;;;;;;;;;11.48;100.00;100106.13;1687979;84;20657;-64
2022/06/04 01:10:43;;;;;;;;;;;;;;;11.51;100.00;100100.02;1688121;85;20123;-64
2022/06/04 01:13:25;;;;;;;;;;;;;;;11.54;100.00;100100.22;1688012;85;21751;-64
2022/06/04 01:16:00;;;;;;;;;;;;;;;11.54;100.00;100103.53;1688041;85;20099;-65
2022/06/04 01:18:57;;;;;;;;;;;;;;;11.53;100.00;100098.59;1688090;85;20455;-65
2022/06/04 01:21:39;;;;;;;;;;;;;;;11.51;100.00;100094.52;1687933;85;20109;-64
2022/06/04 01:24:32;;;;;;;;;;;;;;;11.48;100.00;100100.63;1688058;85;20123;-65
2022/06/04 01:27:10;;;;;;;;;;;;;;;11.47;100.00;100092.95;1687647;84;21171;-65
2022/06/04 01:29:40;;;;;;;;;;;;;;;11.50;100.00;100099.77;1687816;84;20128;-65
2022/06/04 01:32:16;;;;;;;;;;;;;;;11.49;100.00;100092.08;1688048;84;20088;-65
2022/06/04 01:34:54;;;;;;;;;;;;;;;11.51;100.00;100093.14;1688226;85;20446;-65
2022/06/04 01:37:27;;;;;;;;;;;;;;;11.53;100.00;100092.28;1688035;85;20123;-65
2022/06/04 01:42:39;;;;;;;;;;;;;;;11.49;100.00;100098.95;1688343;85;20415;-65
2022/06/04 01:45:08;;;;;;;;;;;;;;;11.45;100.00;100094.37;1692706;83;20112;-65
2022/06/04 01:47:35;;;;;;;;;;;;;;;11.43;100.00;100090.56;1716905;83;38277;-65
2022/06/04 01:50:03;;;;;;;;;;;;;;;11.43;100.00;100093.31;1708468;82;20161;-65
2022/06/04 01:52:34;;;;;;;;;;;;;;;11.44;100.00;100085.88;1689448;83;21150;-64
2022/06/04 01:55:10;;;;;;;;;;;;;;;11.41;100.00;100088.68;1688041;85;20099;-65
2022/06/04 01:57:40;;;;;;;;;;;;;;;11.38;100.00;100089.30;1671128;85;20087;-65
2022/06/04 02:00:13;;;;;;;;;;;;;;;11.37;100.00;100083.55;1688044;84;20119;-65
2022/06/04 02:02:43;;;;;;;;;;;;;;;11.37;100.00;100084.11;1693480;82;20097;-65
2022/06/04 02:05:12;;;;;;;;;;;;;;;11.39;100.00;100082.68;1699651;83;21173;-66
2022/06/04 02:07:42;;;;;;;;;;;;;;;11.41;100.00;100080.44;1700452;83;20120;-66
2022/06/04 02:10:13;;;;;;;;;;;;;;;11.40;100.00;100082.12;1702908;83;20120;-65
2022/06/04 02:12:40;;;;;;;;;;;;;;;11.39;100.00;100086.80;1708089;82;20693;-66
2022/06/04 02:15:07;;;;;;;;;;;;;;;11.40;100.00;100084.86;1699239;83;20140;-65
2022/06/04 02:17:35;;;;;;;;;;;;;;;11.39;100.00;100083.23;1686665;85;21140;-65
2022/06/04 02:20:01;;;;;;;;;;;;;;;11.38;100.00;100088.48;1686530;85;20088;-65
2022/06/04 02:22:30;;;;;;;;;;;;;;;11.39;100.00;100092.86;1686800;85;20088;-65
2022/06/04 02:24:56;;;;;;;;;;;;;;;11.38;100.00;100095.35;1687004;85;20092;-65
2022/06/04 02:27:22;;;;;;;;;;;;;;;11.35;100.00;100095.97;1686631;85;20103;-65
2022/06/04 02:29:48;;;;;;;;;;;;;;;11.30;100.00;100090.02;1686555;84;20676;-64
2022/06/04 02:32:24;;;;;;;;;;;;;;;11.27;100.00;100095.31;1705771;82;20153;-64
2022/06/04 02:35:14;;;;;;;;;;;;;;;11.23;100.00;100093.17;1709565;83;20104;-65
2022/06/04 02:38:01;;;;;;;;;;;;;;;11.23;100.00;100098.67;1688226;85;20132;-65
2022/06/04 02:40:40;;;;;;;;;;;;;;;11.22;100.00;100097.05;1688179;85;20095;-65
2022/06/04 02:43:11;;;;;;;;;;;;;;;11.27;100.00;100099.44;1688210;85;21169;-65
2022/06/04 02:46:11;;;;;;;;;;;;;;;11.32;100.00;100103.45;1689297;85;20075;-65
2022/06/04 02:48:44;;;;;;;;;;;;;;;11.37;100.00;100104.72;1693439;84;20415;-65
2022/06/04 02:51:21;;;;;;;;;;;;;;;11.45;100.00;100113.62;1692369;85;20099;-65
2022/06/04 02:53:48;;;;;;;;;;;;;;;11.52;100.00;100113.46;1693401;85;20075;-65
2022/06/04 02:56:21;;;;;;;;;;;;;;;11.62;100.00;100112.95;1693376;85;22151;-65
2022/06/04 02:58:50;;;;;;;;;;;;;;;11.70;100.00;100111.66;1693451;84;20091;-65
2022/06/04 03:01:16;;;;;;;;;;;;;;;11.79;100.00;100115.91;1693371;85;20154;-65
2022/06/04 03:03:43;;;;;;;;;;;;;;;11.88;100.00;100113.48;1693235;84;20155;-65
2022/06/04 03:06:21;;;;;;;;;;;;;;;12.00;100.00;100112.13;1693393;85;20099;-65
2022/06/04 03:08:48;;;;;;;;;;;;;;;12.11;100.00;100104.69;1693289;84;21861;-65
2022/06/04 03:11:15;;;;;;;;;;;;;;;12.24;100.00;100107.91;1693274;85;20124;-66
2022/06/04 03:13:41;;;;;;;;;;;;;;;12.37;100.00;100108.98;1693270;85;20116;-66
2022/06/04 03:16:08;;;;;;;;;;;;;;;12.47;100.00;100105.16;1693228;85;20123;-66
2022/06/04 03:18:34;;;;;;;;;;;;;;;12.59;100.00;100105.39;1693372;84;20100;-64
2022/06/04 03:21:01;;;;;;;;;;;;;;;12.67;100.00;100096.36;1693352;85;21139;-64
2022/06/04 03:23:27;;;;;;;;;;;;;;;12.77;100.00;100100.19;1693201;85;20144;-65
2022/06/04 03:25:53;;;;;;;;;;;;;;;12.88;100.00;100103.48;1693374;84;20127;-64
2022/06/04 03:28:19;;;;;;;;;;;;;;;13.01;100.00;100109.46;1693211;84;20172;-64
2022/06/04 03:30:46;;;;;;;;;;;;;;;13.12;100.00;100109.42;1667732;85;20119;-64
2022/06/04 03:33:14;;;;;;;;;;;;;;;13.20;100.00;100103.16;1693257;84;20108;-65
2022/06/04 03:35:42;;;;;;;;;;;;;;;13.33;100.00;100107.47;1699531;82;20103;-65
2022/06/04 03:38:09;;;;;;;;;;;;;;;13.39;100.00;100104.23;1703368;83;20166;-65
2022/06/04 03:40:35;;;;;;;;;;;;;;;13.49;100.00;100098.98;1697590;83;20108;-65
2022/06/04 03:43:02;;;;;;;;;;;;;;;13.58;100.00;100100.39;1706861;83;20167;-65
2022/06/04 03:45:28;;;;;;;;;;;;;;;13.68;100.00;100094.56;1706665;83;21171;-65
2022/06/04 03:47:58;;;;;;;;;;;;;;;13.77;100.00;100093.44;1699553;83;20119;-65
2022/06/04 03:50:27;;;;;;;;;;;;;;;13.90;100.00;100091.63;1701218;82;20138;-66
2022/06/04 03:52:55;;;;;;;;;;;;;;;14.02;100.00;100092.36;1702610;83;20150;-65
2022/06/04 03:55:25;;;;;;;;;;;;;;;14.12;100.00;100091.47;1694465;83;20147;-65
2022/06/04 03:57:52;;;;;;;;;;;;;;;14.25;100.00;100091.62;1686597;85;21176;-64
2022/06/04 04:00:26;;;;;;;;;;;;;;;14.37;100.00;100080.72;1686460;85;20116;-65
2022/06/04 04:02:57;;;;;;;;;;;;;;;14.49;100.00;100094.09;1686830;85;20088;-65
2022/06/04 04:05:26;;;;;;;;;;;;;;;14.60;100.00;100098.70;1687072;82;20543;-66
2022/06/04 04:07:54;;;;;;;;;;;;;;;14.70;100.00;100101.69;1704040;83;20179;-65
2022/06/04 04:10:21;;;;;;;;;;;;;;;14.78;100.00;100104.42;1687973;85;20748;-65
2022/06/04 04:12:50;;;;;;;;;;;;;;;14.87;100.00;100107.16;1688026;85;20087;-66
2022/06/04 04:15:18;;;;;;;;;;;;;;;14.98;100.00;100100.70;1688113;85;20104;-65
2022/06/04 04:17:44;;;;;;;;;;;;;;;15.14;100.00;100103.12;1688185;85;20144;-65
2022/06/04 04:20:16;;;;;;;;;;;;;;;15.30;100.00;100104.19;1688100;85;20167;-67
2022/06/04 04:22:43;;;;;;;;;;;;;;;15.48;100.00;100104.90;1687196;84;21178;-66
2022/06/04 04:25:10;;;;;;;;;;;;;;;15.61;100.00;100101.08;1688118;85;20450;-66
2022/06/04 04:27:38;;;;;;;;;;;;;;;15.74;97.95;100098.63;1688176;85;20442;-66
2022/06/04 04:30:06;;;;;;;;;;;;;;;15.87;96.69;100101.47;1687855;84;20099;-66
2022/06/04 04:32:33;;;;;;;;;;;;;;;15.96;93.71;100093.91;1688027;85;20108;-66
2022/06/04 04:35:01;;;;;;;;;;;;;;;16.06;90.33;100093.50;1688184;85;21243;-66
2022/06/04 04:37:27;;;;;;;;;;;;;;;16.18;88.52;100090.75;1687879;85;20088;-66
2022/06/04 04:39:54;;;;;;;;;;;;;;;16.31;87.58;100084.69;1688141;85;20442;-66
2022/06/04 04:42:23;;;;;;;;;;;;;;;16.46;85.94;100092.36;1687748;85;20600;-66
2022/06/04 04:44:50;;;;;;;;;;;;;;;16.56;84.67;100093.31;1688102;85;20131;-66
2022/06/04 04:47:17;;;;;;;;;;;;;;;16.63;84.17;100098.30;1687891;85;21254;-66
2022/06/04 04:49:43;;;;;;;;;;;;;;;16.72;83.72;100090.16;1687786;85;20092;-66
2022/06/04 04:52:11;;;;;;;;;;;;;;;16.85;83.34;100102.05;1688000;85;20104;-66
2022/06/04 04:54:38;;;;;;;;;;;;;;;16.95;81.99;100098.02;1688026;85;20549;-66
2022/06/04 04:57:05;;;;;;;;;;;;;;;17.00;80.83;100099.19;1688016;85;20115;-66
2022/06/04 04:59:31;;;;;;;;;;;;;;;17.05;80.77;100097.57;1687989;85;21178;-66
2022/06/04 05:01:57;;;;;;;;;;;;;;;17.12;80.19;100093.65;1688004;85;20107;-66
2022/06/04 05:04:24;;;;;;;;;;;;;;;17.20;79.79;100089.95;1687974;85;20188;-66
2022/06/04 05:06:50;;;;;;;;;;;;;;;17.32;78.89;100096.08;1688065;85;20087;-66
2022/06/04 05:09:17;;;;;;;;;;;;;;;17.46;78.28;100097.89;1688100;85;20116;-66
2022/06/04 05:11:44;;;;;;;;;;;;;;;17.57;76.29;100100.42;1687995;85;21174;-67
2022/06/04 05:14:12;;;;;;;;;;;;;;;17.64;75.65;100093.70;1688195;85;20457;-66
2022/06/04 05:16:39;;;;;;;;;;;;;;;17.76;73.74;100098.47;1688169;85;20123;-66
2022/06/04 05:19:06;;;;;;;;;;;;;;;17.89;70.94;100090.91;1688079;85;20100;-66
2022/06/04 05:21:38;;;;;;;;;;;;;;;17.96;69.23;100095.27;1688244;85;20156;-67
2022/06/04 05:24:06;;;;;;;;;;;;;;;18.01;66.48;100098.60;1693227;84;21865;-67
2022/06/04 05:26:32;;;;;;;;;;;;;;;18.07;66.17;100097.78;1688163;85;20155;-67
2022/06/04 05:29:00;;;;;;;;;;;;;;;18.12;65.63;100106.67;1688120;84;20088;-67
2022/06/04 05:31:27;;;;;;;;;;;;;;;18.18;66.19;100097.51;1688006;85;20079;-66
2022/06/04 05:33:53;;;;;;;;;;;;;;;18.22;65.73;100098.42;1688247;85;20132;-67
2022/06/04 05:36:20;;;;;;;;;;;;;;;18.29;65.20;100097.81;1688122;85;21167;-66
2022/06/04 05:38:46;;;;;;;;;;;;;;;18.35;66.00;100095.81;1688236;85;20139;-66
2022/06/04 05:41:13;;;;;;;;;;;;;;;18.44;66.20;100095.08;1688209;85;20147;-66
2022/06/04 05:43:40;;;;;;;;;;;;;;;18.53;65.92;100096.28;1688214;85;20120;-66
2022/06/04 05:46:09;;;;;;;;;;;;;;;18.59;65.60;100089.30;1688347;85;20087;-66
2022/06/04 05:48:37;;;;;;;;;;;;;;;18.65;66.39;100088.48;1693324;84;21182;-66
2022/06/04 05:51:04;;;;;;;;;;;;;;;18.71;67.02;100088.45;1693492;85;20465;-67
2022/06/04 05:53:31;;;;;;;;;;;;;;;18.77;65.88;100087.83;1693433;85;20087;-67
2022/06/04 05:55:57;;;;;;;;;;;;;;;18.83;66.69;100092.55;1693309;84;20096;-67
2022/06/04 05:58:23;;;;;;;;;;;;;;;18.91;66.13;100093.54;1693304;85;20119;-68
2022/06/04 06:00:50;;;;;;;;;;;;;;;18.98;67.61;100086.19;1693257;84;21169;-67
2022/06/04 06:03:16;;;;;;;;;;;;;;;19.09;66.07;100091.41;1667530;85;20091;-67
2022/06/04 06:05:44;;;;;;;;;;;;;;;19.18;66.84;100089.02;1693301;84;20194;-67
2022/06/04 06:08:11;;;;;;;;;;;;;;;19.27;67.36;100088.26;1693320;85;20662;-67
2022/06/04 06:10:42;;;;;;;;;;;;;;;19.36;67.30;100087.48;1693400;84;20459;-67
2022/06/04 06:13:08;;;;;;;;;;;;;;;19.45;66.07;100089.49;1692362;84;21319;-68
2022/06/04 06:15:35;;;;;;;;;;;;;;;19.55;65.67;100090.94;1693242;84;20374;-67
2022/06/04 06:18:02;;;;;;;;;;;;;;;19.60;66.42;100091.47;1693465;85;20532;-67
2022/06/04 06:20:29;;;;;;;;;;;;;;;19.67;65.66;100086.03;1693290;85;20099;-67
2022/06/04 06:22:55;;;;;;;;;;;;;;;19.76;65.87;100076.89;1693522;85;20158;-67
2022/06/04 06:25:21;;;;;;;;;;;;;;;19.89;63.99;100078.15;1693650;85;21126;-67
2022/06/04 06:27:48;;;;;;;;;;;;;;;19.97;63.12;100082.70;1693185;85;20087;-68
2022/06/04 06:30:14;;;;;;;;;;;;;;;20.00;61.79;100078.59;1693311;84;20462;-68
2022/06/04 06:32:41;;;;;;;;;;;;;;;20.04;61.63;100080.87;1693191;85;20108;-67
2022/06/04 06:35:08;;;;;;;;;;;;;;;20.10;61.45;100082.78;1693403;85;20091;-66
2022/06/04 06:37:36;;;;;;;;;;;;;;;20.14;62.09;100081.47;1693590;84;20680;-65
2022/06/04 06:40:04;;;;;;;;;;;;;;;20.14;63.00;100079.48;1693218;84;20111;-67
2022/06/04 06:42:30;;;;;;;;;;;;;;;20.14;61.69;100073.91;1693290;84;20454;-66
2022/06/04 06:44:58;;;;;;;;;;;;;;;20.14;60.48;100065.55;1693384;85;20159;-67
2022/06/04 06:47:25;;;;;;;;;;;;;;;20.15;60.73;100063.56;1693302;85;20155;-67
2022/06/04 06:49:51;;;;;;;;;;;;;;;20.18;59.78;100061.44;1693356;85;21157;-68
2022/06/04 06:52:19;;;;;;;;;;;;;;;20.22;61.00;100056.74;1690719;84;20480;-67
2022/06/04 06:54:46;;;;;;;;;;;;;;;20.28;60.10;100056.05;1693962;83;20103;-66
2022/06/04 06:57:16;;;;;;;;;;;;;;;20.34;59.49;100052.38;1719611;83;20912;-66
2022/06/04 06:59:45;;;;;;;;;;;;;;;20.37;58.55;100046.05;1716853;82;20145;-67
2022/06/04 07:02:12;;;;;;;;;;;;;;;20.44;60.26;100036.47;1716173;83;21901;-67
2022/06/04 07:04:39;;;;;;;;;;;;;;;20.54;59.26;100038.64;1715887;83;20165;-67
2022/06/04 07:07:07;;;;;;;;;;;;;;;20.65;56.46;100037.45;1715998;82;20428;-68
2022/06/04 07:09:35;;;;;;;;;;;;;;;20.76;57.57;100024.49;1716345;82;20128;-67
2022/06/04 07:12:02;;;;;;;;;;;;;;;20.89;55.83;100025.88;1715571;83;20165;-66
2022/06/04 07:14:29;;;;;;;;;;;;;;;20.95;53.44;100024.39;1722211;83;21162;-66
2022/06/04 07:16:57;;;;;;;;;;;;;;;20.96;51.77;100024.61;1721589;83;20085;-67
2022/06/04 07:19:25;;;;;;;;;;;;;;;21.00;52.28;100031.05;1722067;83;20157;-66
2022/06/04 07:21:53;;;;;;;;;;;;;;;21.02;52.96;100025.09;1722188;83;20108;-69
2022/06/04 07:24:19;;;;;;;;;;;;;;;21.08;53.88;100025.80;1722226;83;20113;-66
2022/06/04 07:26:46;;;;;;;;;;;;;;;21.23;53.36;100021.87;1722291;83;21151;-66
2022/06/04 07:29:12;;;;;;;;;;;;;;;21.38;52.23;100019.47;1721159;82;20125;-66
2022/06/04 07:31:39;;;;;;;;;;;;;;;21.48;52.21;100014.63;1722014;83;20085;-66
2022/06/04 07:34:05;;;;;;;;;;;;;;;21.60;51.26;100017.20;1722074;83;20177;-66
2022/06/04 07:36:36;;;;;;;;;;;;;;;21.69;52.99;100019.12;1722156;83;20153;-66
2022/06/04 07:39:05;;;;;;;;;;;;;;;21.84;49.67;100018.71;1714259;82;21128;-66
2022/06/04 07:41:35;;;;;;;;;;;;;;;21.95;47.37;100016.83;1709131;82;20142;-67
2022/06/04 07:44:03;;;;;;;;;;;;;;;22.00;49.30;100016.48;1701829;82;20162;-66
2022/06/04 07:46:30;;;;;;;;;;;;;;;22.04;48.29;100010.97;1718928;83;20169;-65
2022/06/04 07:48:58;;;;;;;;;;;;;;;22.06;50.27;100006.61;1716857;83;20094;-65
2022/06/04 07:51:25;;;;;;;;;;;;;;;22.21;51.13;100006.77;1716605;83;21169;-66
2022/06/04 07:53:51;;;;;;;;;;;;;;;22.35;47.01;100006.33;1716652;83;20105;-65
2022/06/04 07:56:17;;;;;;;;;;;;;;;22.34;45.64;100000.52;1716797;83;20129;-66
2022/06/04 07:58:44;;;;;;;;;;;;;;;22.33;43.31;100003.11;1716766;83;20093;-66
2022/06/04 08:01:14;;;;;;;;;;;;;;;22.34;45.50;99996.33;1716824;83;20174;-66
2022/06/04 08:03:42;;;;;;;;;;;;;;;22.47;44.15;99996.05;1716859;83;21088;-65
2022/06/04 08:06:11;;;;;;;;;;;;;;;22.58;43.06;99994.94;1716022;83;20109;-67
2022/06/04 08:08:39;;;;;;;;;;;;;;;22.66;45.37;99995.21;1715818;83;20136;-67
2022/06/04 08:13:52;;;;;;;;;;;;;;;22.91;46.16;99983.45;1714969;83;20114;-66
2022/06/04 08:16:19;;;;;;;;;;;;;;;23.16;44.92;99991.41;1711271;84;21097;-67
2022/06/04 08:18:47;;;;;;;;;;;;;;;23.43;45.22;99986.37;1710936;83;20177;-67
2022/06/04 08:21:13;;;;;;;;;;;;;;;23.75;44.43;99986.55;1709166;84;20157;-67
2022/06/04 08:23:42;;;;;;;;;;;;;;;24.01;42.03;99989.66;1711011;84;20150;-66
2022/06/04 08:26:08;;;;;;;;;;;;;;;24.14;41.11;99982.48;1711278;83;20477;-65
2022/06/04 08:28:35;;;;;;;;;;;;;;;24.31;40.60;99986.53;1711303;83;21142;-65
2022/06/04 08:31:05;;;;;;;;;;;;;;;24.32;41.88;99974.91;1711257;84;20130;-64
2022/06/04 08:33:32;;;;;;;;;;;;;;;24.48;40.31;99978.75;1710555;84;20333;-75
2022/06/04 08:35:59;;;;;;;;;;;;;;;24.66;40.53;99970.34;1709593;84;20654;-69
2022/06/04 08:38:25;;;;;;;;;;;;;;;24.87;39.11;99973.13;1709140;84;20181;-69
2022/06/04 08:40:56;;;;;;;;;;;;;;;24.94;38.20;99969.51;1709737;84;21296;-71
2022/06/04 08:43:49;;;;;;;;;;;;;;;25.01;39.05;99968.93;1709619;84;20193;-68
2022/06/04 08:46:20;;;;;;;;;;;;;;;25.19;38.76;99970.91;1709711;83;20173;-68
2022/06/04 08:48:47;;;;;;;;;;;;;;;25.35;38.98;99967.06;1709747;83;20153;-69
2022/06/04 08:51:24;;;;;;;;;;;;;;;25.34;37.48;99965.46;1713345;82;20527;-68
2022/06/04 08:53:54;;;;;;;;;;;;;;;25.29;38.23;99957.45;1723267;83;21153;-69
2022/06/04 08:59:29;;;;;;;;;;;;;;;25.41;41.31;99959.83;1707424;84;20154;-72
2022/06/04 09:01:59;;;;;;;;;;;;;;;25.43;38.53;99959.39;1707352;84;20206;-70
2022/06/04 09:04:47;;;;;;;;;;;;;;;25.25;37.51;99959.46;1707389;84;20242;-72
2022/06/04 09:07:20;;;;;;;;;;;;;;;24.88;38.98;99952.27;1707367;84;22013;-73
2022/06/04 09:09:53;;;;;;;;;;;;;;;24.77;40.37;99957.11;1706134;84;20698;-69
2022/06/04 09:12:41;;;;;;;;;;;;;;;24.82;38.47;99951.09;1707836;84;20143;-69
2022/06/04 09:15:29;;;;;;;;;;;;;;;24.97;38.66;99952.69;1701938;84;20195;-70
2022/06/04 09:17:54;;;;;;;;;;;;;;;25.15;39.09;99954.66;1707503;84;20175;-71
2022/06/04 09:20:38;;;;;;;;;;;;;;;25.40;40.75;99954.01;1707440;84;20166;-70
2022/06/04 09:23:09;;;;;;;;;;;;;;;25.74;38.99;99955.69;1707620;84;20233;-68
2022/06/04 09:25:46;;;;;;;;;;;;;;;25.95;37.34;99947.77;1707167;84;20186;-71
2022/06/04 09:28:28;;;;;;;;;;;;;;;26.02;36.36;99947.69;1706484;84;20736;-71
2022/06/04 09:31:10;;;;;;;;;;;;;;;26.13;37.38;99951.25;1706962;84;20214;-71
2022/06/04 09:34:00;;;;;;;;;;;;;;;26.38;35.63;99946.09;1701714;84;21387;-69
2022/06/04 09:36:29;;;;;;;;;;;;;;;26.38;35.71;99936.24;1706409;84;20186;-69
2022/06/04 09:39:08;;;;;;;;;;;;;;;26.34;34.08;99935.47;1705465;84;20200;-70
2022/06/04 09:41:35;;;;;;;;;;;;;;;26.15;35.55;99933.34;1708067;84;20126;-69
2022/06/04 09:44:08;;;;;;;;;;;;;;;26.22;36.75;99934.70;1708057;84;20482;-70
2022/06/04 09:46:35;;;;;;;;;;;;;;;26.31;35.05;99932.27;1708492;84;21146;-69
2022/06/04 09:49:06;;;;;;;;;;;;;;;26.40;37.07;99933.20;1708436;84;20227;-69
2022/06/04 09:51:37;;;;;;;;;;;;;;;26.62;35.43;99927.58;1703457;84;20156;-68
2022/06/04 09:54:05;;;;;;;;;;;;;;;26.85;35.00;99922.75;1701430;84;20131;-69
2022/06/04 09:56:37;;;;;;;;;;;;;;;27.06;35.12;99916.74;1701437;84;20178;-69
2022/06/04 09:59:10;;;;;;;;;;;;;;;27.10;33.95;99918.91;1701416;84;21179;-69
2022/06/04 10:01:37;;;;;;;;;;;;;;;27.11;33.45;99916.29;1699109;84;20115;-71
2022/06/04 10:04:14;;;;;;;;;;;;;;;27.00;35.81;99924.05;1701559;84;20541;-70
2022/06/04 10:06:41;;;;;;;;;;;;;;;27.00;34.34;99924.05;1701578;84;20126;-72
2022/06/04 10:12:07;;;;;;;;;;;;;;;27.26;35.17;99919.91;1701359;84;21129;-66
2022/06/04 10:14:37;;;;;;;;;;;;;;;27.32;32.88;99918.84;1700056;84;20146;-67
2022/06/04 10:17:14;;;;;;;;;;;;;;;27.32;33.39;99918.05;1701442;84;20128;-67
2022/06/04 10:19:44;;;;;;;;;;;;;;;27.23;32.08;99919.34;1702223;83;20137;-67
2022/06/04 10:22:12;;;;;;;;;;;;;;;26.99;32.89;99913.39;1670900;85;20091;-67
2022/06/04 10:24:48;;;;;;;;;;;;;;;26.81;33.24;99909.30;1702359;84;21173;-67
2022/06/04 10:27:22;;;;;;;;;;;;;;;26.82;32.90;99901.05;1702242;83;21048;-67
2022/06/04 10:29:54;;;;;;;;;;;;;;;26.98;32.49;99905.36;1702352;83;20097;-67
2022/06/04 10:32:36;;;;;;;;;;;;;;;27.21;33.32;99899.23;1703792;83;20625;-68
2022/06/04 10:35:23;;;;;;;;;;;;;;;27.42;31.99;99897.39;1702220;84;20128;-67
2022/06/04 10:38:10;;;;;;;;;;;;;;;27.52;33.73;99886.59;1702357;84;20547;-67
2022/06/04 10:40:52;;;;;;;;;;;;;;;27.85;33.82;99881.50;1702315;84;20416;-67
2022/06/04 10:43:26;;;;;;;;;;;;;;;28.18;33.23;99885.45;1702207;83;20085;-66
2022/06/04 10:46:28;;;;;;;;;;;;;;;28.10;31.93;99888.20;1704415;83;20129;-67
2022/06/04 10:49:16;;;;;;;;;;;;;;;27.79;32.60;99886.64;1708578;83;20171;-67
2022/06/04 10:51:58;;;;;;;;;;;;;;;27.42;31.87;99893.16;1657814;85;21859;-66
2022/06/04 10:54:46;;;;;;;;;;;;;;;27.33;33.48;99888.03;1645067;87;20127;-66
2022/06/04 10:57:28;;;;;;;;;;;;;;;27.22;31.84;99887.34;1645827;87;20138;-66
2022/06/04 11:00:13;;;;;;;;;;;;;;;27.27;32.10;99884.07;1657864;86;20161;-66
2022/06/04 11:02:50;;;;;;;;;;;;;;;27.40;31.93;99872.44;1662126;86;20152;-66
2022/06/04 11:05:27;;;;;;;;;;;;;;;27.63;31.85;99873.80;1660127;86;21893;-66
2022/06/04 11:08:13;;;;;;;;;;;;;;;27.66;31.71;99877.17;1656395;86;20181;-66
2022/06/04 11:10:43;;;;;;;;;;;;;;;27.61;32.16;99882.06;1656110;86;20470;-67
2022/06/04 11:13:15;;;;;;;;;;;;;;;27.55;34.07;99874.47;1659537;86;20142;-67
2022/06/04 11:15:53;;;;;;;;;;;;;;;27.71;34.34;99865.42;1660248;86;20100;-66
2022/06/04 11:18:27;;;;;;;;;;;;;;;27.72;32.52;99858.56;1660207;86;21172;-66
2022/06/04 11:21:15;;;;;;;;;;;;;;;27.53;32.47;99854.35;1659394;86;20106;-66
2022/06/04 11:23:54;;;;;;;;;;;;;;;27.29;31.93;99847.81;1660937;86;20102;-66
2022/06/04 11:26:27;;;;;;;;;;;;;;;27.18;32.32;99847.14;1656001;86;20136;-67
2022/06/04 11:28:54;;;;;;;;;;;;;;;27.29;33.18;99843.58;1659507;86;20172;-67
2022/06/04 11:31:42;;;;;;;;;;;;;;;27.59;32.58;99842.20;1668623;86;21118;-67
2022/06/04 11:34:29;;;;;;;;;;;;;;;27.59;31.70;99844.23;1662112;86;20163;-67
2022/06/04 11:37:20;;;;;;;;;;;;;;;27.46;31.71;99841.15;1668658;86;20088;-67
2022/06/04 11:40:07;;;;;;;;;;;;;;;27.59;32.92;99836.56;1673170;86;20089;-67
2022/06/04 11:42:48;;;;;;;;;;;;;;;27.87;32.85;99831.72;1673067;86;20104;-67
2022/06/04 11:45:21;;;;;;;;;;;;;;;27.96;31.85;99827.75;1673050;86;21070;-66
2022/06/04 11:48:09;;;;;;;;;;;;;;;28.04;30.87;99839.11;1673181;86;20124;-67
2022/06/04 11:51:06;;;;;;;;;;;;;;;28.11;30.15;99829.12;1673047;86;20121;-66
2022/06/04 11:53:45;;;;;;;;;;;;;;;28.09;30.73;99838.63;1695224;84;20227;-66
2022/06/04 11:56:21;;;;;;;;;;;;;;;28.12;31.84;99834.15;1695228;84;20124;-67
2022/06/04 11:59:24;;;;;;;;;;;;;;;27.94;30.79;99833.02;1695385;84;21240;-66
2022/06/04 12:01:53;;;;;;;;;;;;;;;27.79;29.13;99833.04;1695480;84;20116;-67
2022/06/04 12:04:34;;;;;;;;;;;;;;;27.75;28.80;99831.69;1695513;84;20127;-66
2022/06/04 12:07:15;;;;;;;;;;;;;;;27.90;29.51;99832.27;1695413;84;20115;-65
2022/06/04 12:09:48;;;;;;;;;;;;;;;27.95;30.79;99820.51;1695437;84;20222;-65
2022/06/04 12:12:22;;;;;;;;;;;;;;;27.83;29.69;99818.27;1695383;84;20116;-65
2022/06/04 12:15:09;;;;;;;;;;;;;;;27.64;31.07;99812.73;1695275;84;20435;-65
2022/06/04 12:17:50;;;;;;;;;;;;;;;27.79;30.24;99803.42;1695433;84;20148;-66
2022/06/04 12:26:27;;;;;;;;;;;;;;;27.90;29.22;99796.39;1670230;84;21159;-65
2022/06/04 12:28:54;;;;;;;;;;;;;;;27.71;30.71;99796.33;1676030;84;20119;-65
2022/06/04 12:31:33;;;;;;;;;;;;;;;27.50;30.75;99793.97;1695264;84;20148;-65
2022/06/04 12:33:58;;;;;;;;;;;;;;;27.19;31.12;99787.54;1692130;84;20119;-65
2022/06/04 12:36:34;;;;;;;;;;;;;;;26.99;31.52;99786.62;1667523;86;20134;-65
2022/06/04 12:39:04;;;;;;;;;;;;;;;26.86;31.64;99784.12;1667682;86;21143;-65
2022/06/04 12:41:39;;;;;;;;;;;;;;;26.79;31.76;99772.94;1676254;84;20104;-65
2022/06/04 12:44:16;;;;;;;;;;;;;;;26.93;32.33;99770.76;1695712;84;20144;-65
2022/06/04 12:46:43;;;;;;;;;;;;;;;27.19;32.22;99777.68;1695286;84;20683;-65
2022/06/04 12:49:34;;;;;;;;;;;;;;;27.43;30.78;99767.90;1695395;84;20210;-65
2022/06/04 12:52:10;;;;;;;;;;;;;;;27.74;30.87;99768.65;1682597;84;21168;-65
2022/06/04 12:54:48;;;;;;;;;;;;;;;28.22;29.77;99760.62;1629251;87;20100;-65
2022/06/04 12:57:32;;;;;;;;;;;;;;;28.37;28.59;99760.34;1636112;87;20120;-65
2022/06/04 13:00:18;;;;;;;;;;;;;;;28.35;29.62;99752.91;1636217;87;20107;-65
2022/06/04 13:03:08;;;;;;;;;;;;;;;28.44;28.50;99753.15;1636212;87;20455;-65
2022/06/04 13:05:38;;;;;;;;;;;;;;;28.68;28.89;99746.23;1636461;87;21189;-65
2022/06/04 13:08:21;;;;;;;;;;;;;;;28.76;29.17;99739.20;1619322;87;20427;-65
2022/06/04 13:10:56;;;;;;;;;;;;;;;28.77;27.85;99738.59;1626108;87;20120;-66
2022/06/04 13:13:49;;;;;;;;;;;;;;;28.65;27.57;99733.59;1636439;87;20486;-65
2022/06/04 13:16:19;;;;;;;;;;;;;;;28.49;28.37;99732.88;1592020;87;20415;-65
2022/06/04 13:18:50;;;;;;;;;;;;;;;28.52;30.25;99728.58;1636060;87;20423;-65
2022/06/04 13:21:17;;;;;;;;;;;;;;;28.65;28.27;99728.73;1636310;87;20096;-65
2022/06/04 13:23:48;;;;;;;;;;;;;;;28.57;28.85;99721.02;1636211;87;20108;-65
2022/06/04 13:26:36;;;;;;;;;;;;;;;28.57;28.20;99716.78;1636133;87;20128;-65